Time;durP1;ratioP1;P1;durP2;ratioP2;P2;SDS_P1;SDS_P2;PMS_P1;PMS_P2;Temp;Humidity;BMP_temperature;BMP_pressure;BME280_temperature;BME280_humidity;BME280_pressure;Samples;Min_cycle;Max_cycle;Signal;HPM_P1;HPM_P2
2022/07/21 04:15:29;;;;;;;8.75;3.78;;;;;;;23.66;46.99;100713.91;5613356;31;84634;-56
2022/07/21 04:18:32;;;;;;;10.80;4.25;;;;;;;23.66;46.99;100713.91;5592556;31;34701;-57
2022/07/21 04:21:34;;;;;;;7.12;3.67;;;;;;;23.32;47.19;100706.56;5583426;32;34195;-56
2022/07/21 04:24:36;;;;;;;7.32;3.97;;;;;;;23.24;51.05;100710.28;5583212;32;34295;-57
2022/07/21 04:27:39;;;;;;;8.88;3.70;;;;;;;23.29;47.91;100702.59;5583293;31;33600;-55
2022/07/21 04:30:42;;;;;;;6.62;3.70;;;;;;;23.38;48.60;100699.66;5583240;31;33687;-56
2022/07/21 04:33:44;;;;;;;10.75;3.83;;;;;;;23.34;54.19;100704.25;5583042;31;33925;-56
2022/07/21 04:36:46;;;;;;;9.27;4.37;;;;;;;23.40;48.94;100702.81;5583131;31;34253;-56
2022/07/21 04:39:49;;;;;;;9.07;3.67;;;;;;;23.55;49.47;100704.72;5583453;32;33631;-56
2022/07/21 04:42:54;;;;;;;7.82;3.97;;;;;;;23.71;49.24;100715.63;5581966;32;34359;-56
2022/07/21 04:45:56;;;;;;;5.00;3.78;;;;;;;23.72;49.53;100714.44;5583165;31;34228;-56
2022/07/21 04:48:59;;;;;;;10.35;3.85;;;;;;;23.82;52.28;100713.88;5583250;31;33694;-56
2022/07/21 04:52:01;;;;;;;9.07;3.78;;;;;;;23.92;49.12;100699.59;5583011;32;34351;-56
2022/07/21 04:55:07;;;;;;;8.43;4.03;;;;;;;24.02;49.75;100708.37;5579396;32;33682;-56
2022/07/21 04:58:10;;;;;;;11.02;4.37;;;;;;;24.20;48.87;100711.41;5572544;31;33944;-56
2022/07/21 05:01:12;;;;;;;9.02;4.18;;;;;;;24.23;49.66;100713.44;5569097;32;33623;-57
2022/07/21 05:04:14;;;;;;;9.35;4.53;;;;;;;24.30;49.79;100719.03;5581864;31;33615;-56
2022/07/21 05:07:17;;;;;;;10.38;4.85;;;;;;;24.37;55.29;100716.41;5581710;31;33829;-57
2022/07/21 05:10:21;;;;;;;7.65;4.18;;;;;;;24.46;49.46;100716.19;5573699;32;33642;-56
2022/07/21 05:13:23;;;;;;;9.80;4.65;;;;;;;24.51;51.87;100711.22;5582572;31;34273;-56
2022/07/21 05:16:25;;;;;;;12.35;4.78;;;;;;;24.65;52.19;100709.84;5580054;31;33676;-56
2022/07/21 05:19:28;;;;;;;8.13;4.07;;;;;;;24.79;49.22;100708.13;5579976;31;33706;-56
2022/07/21 05:22:30;;;;;;;12.70;4.68;;;;;;;24.94;49.25;100717.34;5577772;32;32477;-56
2022/07/21 05:25:35;;;;;;;22.65;5.10;;;;;;;25.09;50.36;100718.34;5574203;31;33676;-57
2022/07/21 05:28:37;;;;;;;14.63;4.65;;;;;;;25.27;51.54;100726.84;5569783;32;33648;-56
2022/07/21 05:31:39;;;;;;;8.43;4.40;;;;;;;25.48;50.22;100729.88;5569614;32;34404;-56
2022/07/21 05:34:42;;;;;;;11.52;4.32;;;;;;;25.72;48.75;100725.84;5569433;32;33680;-56
2022/07/21 05:37:47;;;;;;;10.93;4.70;;;;;;;25.95;47.90;100724.94;5569384;32;34360;-56
2022/07/21 05:40:49;;;;;;;8.55;3.87;;;;;;;26.23;44.81;100730.72;5569410;32;33653;-56
2022/07/21 05:43:52;;;;;;;10.05;4.30;;;;;;;26.48;44.73;100727.44;5569335;32;33735;-56
2022/07/21 05:46:54;;;;;;;6.07;3.78;;;;;;;26.63;41.93;100723.62;5569239;32;34435;-57
2022/07/21 05:49:57;;;;;;;8.15;4.18;;;;;;;26.84;41.27;100728.50;5569413;32;33196;-56
2022/07/21 05:52:59;;;;;;;9.45;4.22;;;;;;;27.02;40.34;100736.06;5569202;32;34366;-56
2022/07/21 05:56:01;;;;;;;10.40;4.30;;;;;;;27.19;39.27;100737.41;5569140;32;33672;-56
2022/07/21 05:59:03;;;;;;;7.22;3.87;;;;;;;27.32;39.12;100736.69;5569113;32;33540;-56
2022/07/21 06:02:06;;;;;;;8.85;4.65;;;;;;;27.48;38.19;100733.59;5569316;32;33565;-56
2022/07/21 06:05:10;;;;;;;13.50;5.72;;;;;;;27.57;38.32;100734.03;5569013;32;33501;-56
2022/07/21 06:08:12;;;;;;;8.68;4.70;;;;;;;27.69;37.92;100741.16;5569174;32;34233;-56
2022/07/21 06:11:19;;;;;;;5.65;4.25;;;;;;;27.76;36.79;100732.13;5568975;32;33807;-56
2022/07/21 06:14:23;;;;;;;12.60;5.12;;;;;;;27.90;36.80;100723.94;5568902;32;33928;-57
2022/07/21 06:17:25;;;;;;;11.02;5.18;;;;;;;28.03;36.04;100724.34;5569021;32;34258;-57
2022/07/21 06:20:27;;;;;;;8.93;5.10;;;;;;;28.11;36.35;100731.44;5568630;32;34226;-56
2022/07/21 06:23:30;;;;;;;6.22;4.57;;;;;;;28.18;37.14;100733.41;5569030;32;34532;-56
2022/07/21 06:26:32;;;;;;;8.45;4.53;;;;;;;28.24;36.96;100732.66;5568728;32;34277;-57
2022/07/21 06:29:34;;;;;;;13.20;4.72;;;;;;;28.38;35.64;100731.91;5568885;32;34321;-56
2022/07/21 06:32:36;;;;;;;10.68;5.37;;;;;;;28.44;36.89;100738.59;5568889;32;33638;-57
2022/07/21 06:35:39;;;;;;;11.82;5.40;;;;;;;28.54;35.72;100737.03;5568584;32;34407;-56
2022/07/21 06:38:41;;;;;;;12.45;4.80;;;;;;;28.56;36.49;100729.16;5567863;32;34260;-57
2022/07/21 06:41:44;;;;;;;8.98;4.62;;;;;;;28.73;35.17;100733.88;5568829;32;33253;-56
2022/07/21 06:44:47;;;;;;;14.85;4.50;;;;;;;28.76;35.06;100729.53;5568716;32;33336;-56
2022/07/21 06:48:03;;;;;;;14.73;5.07;;;;;;;28.76;35.85;100724.78;5568752;32;34255;-57
2022/07/21 06:51:06;;;;;;;12.60;5.00;;;;;;;28.82;34.89;100725.19;5568583;32;33608;-56
2022/07/21 06:54:08;;;;;;;12.15;5.32;;;;;;;28.95;35.03;100731.09;5568610;32;33199;-56
2022/07/21 06:57:10;;;;;;;8.57;4.93;;;;;;;29.00;35.49;100731.47;5568581;32;33645;-57
2022/07/21 07:00:13;;;;;;;11.02;5.35;;;;;;;29.08;35.25;100726.75;5568599;32;34369;-57
2022/07/21 07:03:16;;;;;;;12.05;4.95;;;;;;;29.15;34.97;100723.97;5568565;32;34251;-57
2022/07/21 07:06:23;;;;;;;11.40;5.00;;;;;;;29.24;34.76;100727.09;5568605;32;33529;-57
2022/07/21 07:09:25;;;;;;;13.07;4.80;;;;;;;29.30;34.37;100726.66;5568582;32;33375;-57
2022/07/21 07:12:28;;;;;;;11.93;4.57;;;;;;;29.33;34.19;100721.13;5568402;32;33936;-57
2022/07/21 07:15:50;;;;;;;18.42;4.80;;;;;;;29.36;34.48;100722.31;5568331;32;33652;-56
2022/07/21 07:18:52;;;;;;;10.75;4.97;;;;;;;29.42;33.96;100729.00;5568317;32;34257;-57
2022/07/21 07:21:55;;;;;;;9.80;5.12;;;;;;;29.45;34.50;100737.28;5568419;32;34306;-56
2022/07/21 07:24:58;;;;;;;10.38;4.70;;;;;;;29.53;33.74;100728.94;5568350;32;33688;-56
2022/07/21 07:28:00;;;;;;;9.30;4.68;;;;;;;29.57;33.45;100732.47;5568472;32;33748;-57
2022/07/21 07:31:02;;;;;;;11.30;4.32;;;;;;;29.58;33.74;100720.25;5568264;32;33581;-56
2022/07/21 07:34:05;;;;;;;9.20;4.40;;;;;;;29.62;34.08;100724.59;5568395;32;33654;-56
2022/07/21 07:37:08;;;;;;;12.45;5.20;;;;;;;29.71;33.76;100732.47;5568265;32;33597;-56
2022/07/21 07:40:13;;;;;;;10.52;5.30;;;;;;;29.81;33.48;100722.53;5568247;32;34210;-57
2022/07/21 07:43:16;;;;;;;7.60;4.72;;;;;;;29.87;33.20;100721.72;5568159;32;33778;-56
2022/07/21 07:46:18;;;;;;;11.77;4.65;;;;;;;29.92;33.70;100721.28;5567669;32;34194;-57
2022/07/21 07:49:21;;;;;;;9.25;4.60;;;;;;;30.04;33.09;100717.25;5567749;32;33289;-57
2022/07/21 07:52:23;;;;;;;12.32;4.75;;;;;;;29.93;33.39;100711.81;5568152;32;33644;-56
2022/07/21 07:55:26;;;;;;;13.23;4.55;;;;;;;30.06;33.21;100717.63;5567954;32;33681;-57
2022/07/21 07:58:28;;;;;;;10.27;4.30;;;;;;;30.20;33.08;100719.56;5568097;32;34954;-57
2022/07/21 08:01:30;;;;;;;7.40;4.75;;;;;;;30.26;32.30;100714.34;5567930;32;33575;-56
2022/07/21 08:04:33;;;;;;;10.68;4.85;;;;;;;30.22;32.85;100706.09;5567844;32;34065;-57
2022/07/21 08:07:37;;;;;;;10.27;4.85;;;;;;;30.22;32.44;100706.09;5567869;32;33694;-57
2022/07/21 08:10:40;;;;;;;12.93;5.10;;;;;;;30.41;32.69;100702.00;5567797;32;33429;-56
2022/07/21 08:13:45;;;;;;;6.97;4.68;;;;;;;30.42;31.77;100707.09;5565788;32;33341;-56
2022/07/21 08:16:47;;;;;;;10.38;5.00;;;;;;;30.36;32.26;100711.50;5548153;32;34491;-57
2022/07/21 08:19:49;;;;;;;8.60;4.97;;;;;;;30.28;32.41;100707.22;5548139;32;33660;-56
2022/07/21 08:22:52;;;;;;;11.82;4.65;;;;;;;30.41;32.69;100711.06;5548256;32;34017;-56
2022/07/21 08:25:54;;;;;;;9.32;5.32;;;;;;;30.59;31.94;100710.12;5548085;32;33702;-56
2022/07/21 08:28:57;;;;;;;11.15;5.57;;;;;;;30.62;31.66;100703.78;5548041;32;33289;-57
2022/07/21 08:32:00;;;;;;;11.20;4.65;;;;;;;30.57;31.85;100701.47;5547938;32;33634;-58
2022/07/21 08:35:02;;;;;;;10.73;4.60;;;;;;;30.63;31.79;100702.59;5547749;32;33163;-57
2022/07/21 08:38:08;;;;;;;9.45;4.35;;;;;;;30.63;31.93;100694.31;5547929;32;33230;-57
2022/07/21 08:41:11;;;;;;;7.03;5.05;;;;;;;30.71;31.83;100693.03;5547893;32;33618;-58
2022/07/21 08:44:13;;;;;;;9.65;4.60;;;;;;;30.74;31.63;100694.19;5547803;32;33757;-57
2022/07/21 08:47:16;;;;;;;8.07;4.50;;;;;;;30.78;30.99;100683.88;5547814;32;33662;-57
2022/07/21 08:50:19;;;;;;;11.77;4.85;;;;;;;30.86;30.78;100680.66;5547720;32;33607;-57
2022/07/21 08:53:23;;;;;;;11.52;4.78;;;;;;;30.84;30.26;100685.78;5547503;32;33296;-57
2022/07/21 08:56:25;;;;;;;8.75;4.85;;;;;;;30.87;30.29;100687.75;5547423;32;33702;-57
2022/07/21 08:59:28;;;;;;;9.23;4.78;;;;;;;30.93;30.20;100673.44;5547552;32;34499;-57
2022/07/21 09:02:34;;;;;;;11.43;5.00;;;;;;;30.86;30.38;100674.31;5550289;32;33686;-57
2022/07/21 09:05:37;;;;;;;7.40;4.97;;;;;;;30.93;30.21;100667.91;5550198;32;33689;-57
2022/07/21 09:08:42;;;;;;;12.13;5.22;;;;;;;31.08;29.61;100663.78;5550028;32;34147;-56
2022/07/21 09:11:45;;;;;;;8.10;5.10;;;;;;;31.05;30.00;100672.91;5550117;32;33640;-57
2022/07/21 09:14:47;;;;;;;12.88;4.78;;;;;;;31.16;30.25;100665.28;5549768;32;34294;-57
2022/07/21 09:18:23;;;;;;;10.43;4.35;;;;;;;31.23;29.85;100656.88;5550166;32;34340;-57
2022/07/21 09:21:25;;;;;;;8.38;4.57;;;;;;;31.27;29.77;100656.84;5549562;32;33698;-57
2022/07/21 09:24:40;;;;;;;11.32;4.70;;;;;;;31.31;29.68;100660.31;5549905;32;33695;-57
2022/07/21 09:27:43;;;;;;;10.45;4.43;;;;;;;31.31;28.97;100657.56;5547620;32;33501;-57
2022/07/21 09:30:49;;;;;;;10.07;4.55;;;;;;;31.29;29.41;100655.22;5550094;32;33623;-57
2022/07/21 09:33:51;;;;;;;7.55;4.55;;;;;;;31.42;28.66;100649.91;5553660;32;33626;-57
2022/07/21 09:36:56;;;;;;;12.30;4.90;;;;;;;31.33;29.36;100649.66;5569292;32;33750;-57
